createdAt,value
2023-02-11T00:00:56.092Z,-4.69
2023-02-11T00:01:56.162Z,-4.69
2023-02-11T00:02:56.212Z,-4.66
2023-02-11T00:03:56.145Z,-4.66
2023-02-11T00:04:56.160Z,-4.61
2023-02-11T00:05:56.164Z,-4.61
2023-02-11T00:06:56.184Z,-4.63
2023-02-11T00:07:56.197Z,-4.64
2023-02-11T00:08:56.250Z,-4.66
2023-02-11T00:09:56.253Z,-4.70
2023-02-11T00:10:56.251Z,-4.70
2023-02-11T00:12:02.273Z,-4.71
2023-02-11T00:12:56.271Z,-4.69
2023-02-11T00:13:56.293Z,-4.69
2023-02-11T00:14:56.320Z,-4.70
2023-02-11T00:15:56.326Z,-4.77
2023-02-11T00:16:56.423Z,-4.81
2023-02-11T00:17:56.359Z,-4.85
2023-02-11T00:18:56.373Z,-4.91
2023-02-11T00:19:56.409Z,-4.92
2023-02-11T00:20:56.408Z,-4.92
2023-02-11T00:21:56.426Z,-4.91
2023-02-11T00:22:56.446Z,-4.91
2023-02-11T00:23:56.458Z,-4.87
2023-02-11T00:24:56.491Z,-4.82
2023-02-11T00:25:56.493Z,-4.82
2023-02-11T00:26:56.508Z,-4.85
2023-02-11T00:27:56.537Z,-4.89
2023-02-11T00:28:56.540Z,-4.88
2023-02-11T00:29:56.586Z,-4.88
2023-02-11T00:30:56.688Z,-4.88
2023-02-11T00:31:56.713Z,-4.88
2023-02-11T00:32:56.592Z,-4.88
2023-02-11T00:33:56.605Z,-4.88
2023-02-11T00:34:56.634Z,-4.89
2023-02-11T00:35:56.634Z,-4.95
2023-02-11T00:36:56.648Z,-4.92
2023-02-11T00:37:56.676Z,-4.91
2023-02-11T00:38:56.687Z,-4.88
2023-02-11T00:39:56.717Z,-4.88
2023-02-11T00:40:56.706Z,-4.88
2023-02-11T00:41:56.723Z,-4.91
2023-02-11T00:42:56.747Z,-4.92
2023-02-11T00:43:56.768Z,-4.98
2023-02-11T00:44:56.788Z,-4.99
2023-02-11T00:45:56.866Z,-4.99
2023-02-11T00:46:56.798Z,-5.03
2023-02-11T00:47:56.831Z,-5.09
2023-02-11T00:48:56.830Z,-5.10
2023-02-11T00:49:56.865Z,-5.10
2023-02-11T00:50:56.864Z,-5.09
2023-02-11T00:51:56.885Z,-5.06
2023-02-11T00:52:56.893Z,-5.05
2023-02-11T00:53:56.914Z,-5.05
2023-02-11T00:54:56.942Z,-4.98
2023-02-11T00:55:56.945Z,-4.88
2023-02-11T00:56:56.957Z,-4.84
2023-02-11T00:57:56.976Z,-4.75
2023-02-11T00:58:56.988Z,-4.75
2023-02-11T00:59:57.032Z,-4.78
2023-02-11T01:00:57.046Z,-4.82
2023-02-11T01:01:57.044Z,-4.85
2023-02-11T01:02:57.049Z,-4.92
2023-02-11T01:03:57.072Z,-5.00
2023-02-11T01:04:57.126Z,-5.03
2023-02-11T01:05:57.098Z,-5.03
2023-02-11T01:06:57.109Z,-5.02
2023-02-11T01:07:57.124Z,-5.02
2023-02-11T01:08:57.144Z,-5.05
2023-02-11T01:09:57.182Z,-5.05
2023-02-11T01:10:57.185Z,-5.06
2023-02-11T01:11:57.187Z,-5.05
2023-02-11T01:12:57.205Z,-5.05
2023-02-11T01:13:57.217Z,-4.99
2023-02-11T01:14:57.254Z,-4.96
2023-02-11T01:15:57.366Z,-4.96
2023-02-11T01:16:57.268Z,-4.98
2023-02-11T01:17:57.280Z,-5.02
2023-02-11T01:18:57.300Z,-5.05
2023-02-11T01:19:57.329Z,-5.06
2023-02-11T01:20:57.329Z,-5.08
2023-02-11T01:21:57.380Z,-5.05
2023-02-11T01:22:57.423Z,-5.05
2023-02-11T01:23:57.377Z,-5.06
2023-02-11T01:24:57.417Z,-5.09
2023-02-11T01:25:57.409Z,-5.14
2023-02-11T01:26:57.431Z,-5.13
2023-02-11T01:27:57.500Z,-5.05
2023-02-11T01:28:57.455Z,-5.03
2023-02-11T01:29:57.487Z,-5.06
2023-02-11T01:30:57.512Z,-5.08
2023-02-11T01:31:57.642Z,-5.14
2023-02-11T01:32:57.516Z,-5.19
2023-02-11T01:33:57.528Z,-5.17
2023-02-11T01:34:57.569Z,-5.17
2023-02-11T01:35:57.567Z,-5.19
2023-02-11T01:36:57.585Z,-5.18
2023-02-11T01:37:57.600Z,-5.21
2023-02-11T01:38:57.627Z,-5.22
2023-02-11T01:39:57.646Z,-5.25
2023-02-11T01:40:57.647Z,-5.24
2023-02-11T01:41:57.659Z,-5.19
2023-02-11T01:42:57.685Z,-5.19
2023-02-11T01:43:57.693Z,-5.21
2023-02-11T01:44:57.731Z,-5.21
2023-02-11T01:45:57.721Z,-5.27
2023-02-11T01:46:57.733Z,-5.27
2023-02-11T01:47:57.747Z,-5.29
2023-02-11T01:48:57.838Z,-5.25
2023-02-11T01:49:57.809Z,-5.25
2023-02-11T01:50:57.799Z,-5.25
2023-02-11T01:51:57.826Z,-5.28
2023-02-11T01:52:57.834Z,-5.29
2023-02-11T01:53:57.857Z,-5.29
2023-02-11T01:54:57.884Z,-5.25
2023-02-11T01:55:57.877Z,-5.21
2023-02-11T01:56:57.894Z,-5.17
2023-02-11T01:57:57.912Z,-5.10
2023-02-11T01:58:57.923Z,-5.13
2023-02-11T01:59:57.955Z,-5.14
2023-02-11T02:00:57.966Z,-5.19
2023-02-11T02:01:58.042Z,-5.25
2023-02-11T02:02:57.989Z,-5.28
2023-02-11T02:03:58.067Z,-5.33
2023-02-11T02:04:58.041Z,-5.36
2023-02-11T02:05:58.035Z,-5.42
2023-02-11T02:06:58.053Z,-5.40
2023-02-11T02:07:58.067Z,-5.40
2023-02-11T02:08:58.090Z,-5.35
2023-02-11T02:09:58.118Z,-5.25
2023-02-11T02:10:58.119Z,-5.17
2023-02-11T02:11:58.131Z,-5.13
2023-02-11T02:12:58.155Z,-5.08
2023-02-11T02:13:58.162Z,-5.06
2023-02-11T02:14:58.198Z,-5.05
2023-02-11T02:15:58.250Z,-5.05
2023-02-11T02:16:58.208Z,-5.13
2023-02-11T02:17:58.284Z,-5.18
2023-02-11T02:18:58.239Z,-5.18
2023-02-11T02:19:58.278Z,-5.22
2023-02-11T02:20:58.278Z,-5.27
2023-02-11T02:21:58.293Z,-5.33
2023-02-11T02:22:58.305Z,-5.38
2023-02-11T02:23:58.319Z,-5.42
2023-02-11T02:24:58.363Z,-5.43
2023-02-11T02:25:58.352Z,-5.45
2023-02-11T02:26:58.373Z,-5.47
2023-02-11T02:27:58.430Z,-5.51
2023-02-11T02:28:58.395Z,-5.53
2023-02-11T02:29:58.432Z,-5.53
2023-02-11T02:30:58.507Z,-5.54
2023-02-11T02:31:58.445Z,-5.51
2023-02-11T02:32:58.464Z,-5.45
2023-02-11T02:33:58.486Z,-5.45
2023-02-11T02:34:58.517Z,-5.42
2023-02-11T02:35:58.523Z,-5.39
2023-02-11T02:36:58.533Z,-5.40
2023-02-11T02:37:58.556Z,-5.42
2023-02-11T02:38:58.564Z,-5.45
2023-02-11T02:39:58.596Z,-5.51
2023-02-11T02:40:58.597Z,-5.54
2023-02-11T02:41:58.616Z,-5.57
2023-02-11T02:42:58.634Z,-5.58
2023-02-11T02:43:58.645Z,-5.60
2023-02-11T02:44:58.688Z,-5.63
2023-02-11T02:45:58.681Z,-5.61
2023-02-11T02:46:58.761Z,-5.63
2023-02-11T02:47:58.713Z,-5.66
2023-02-11T02:48:58.741Z,-5.63
2023-02-11T02:49:58.766Z,-5.64
2023-02-11T02:50:58.765Z,-5.66
2023-02-11T02:51:58.781Z,-5.66
2023-02-11T02:52:58.797Z,-5.67
2023-02-11T02:53:58.814Z,-5.57
2023-02-11T02:54:58.859Z,-5.53
2023-02-11T02:55:58.845Z,-5.45
2023-02-11T02:56:58.863Z,-5.42
2023-02-11T02:57:58.876Z,-5.40
2023-02-11T02:58:58.896Z,-5.46
2023-02-11T02:59:58.986Z,-5.51
2023-02-11T03:00:59.012Z,-5.54
2023-02-11T03:01:58.949Z,-5.58
2023-02-11T03:02:58.967Z,-5.64
2023-02-11T03:03:59.037Z,-5.67
2023-02-11T03:04:59.022Z,-5.71
2023-02-11T03:05:59.008Z,-5.74
2023-02-11T03:06:59.030Z,-5.75
2023-02-11T03:07:59.042Z,-5.71
2023-02-11T03:08:59.063Z,-5.60
2023-02-11T03:09:59.100Z,-5.53
2023-02-11T03:10:59.105Z,-5.47
2023-02-11T03:11:59.110Z,-5.42
2023-02-11T03:12:59.134Z,-5.36
2023-02-11T03:13:59.147Z,-5.29
2023-02-11T03:14:59.192Z,-5.27
2023-02-11T03:15:59.198Z,-5.25
2023-02-11T03:16:59.213Z,-5.28
2023-02-11T03:17:59.201Z,-5.36
2023-02-11T03:18:59.220Z,-5.35
2023-02-11T03:19:59.254Z,-5.36
2023-02-11T03:20:59.258Z,-5.39
2023-02-11T03:21:59.266Z,-5.42
2023-02-11T03:22:59.282Z,-5.45
2023-02-11T03:23:59.294Z,-5.46
2023-02-11T03:24:59.335Z,-5.53
2023-02-11T03:25:59.324Z,-5.53
2023-02-11T03:26:59.343Z,-5.54
2023-02-11T03:27:59.411Z,-5.43
2023-02-11T03:28:59.369Z,-5.38
2023-02-11T03:29:59.416Z,-5.35
2023-02-11T03:30:59.460Z,-5.31
2023-02-11T03:31:59.486Z,-5.33
2023-02-11T03:32:59.445Z,-5.39
2023-02-11T03:33:59.451Z,-5.40
2023-02-11T03:34:59.500Z,-5.42
2023-02-11T03:35:59.483Z,-5.40
2023-02-11T03:36:59.509Z,-5.42
2023-02-11T03:37:59.511Z,-5.42
2023-02-11T03:38:59.531Z,-5.42
2023-02-11T03:39:59.573Z,-5.46
2023-02-11T03:40:59.564Z,-5.49
2023-02-11T03:41:59.579Z,-5.46
2023-02-11T03:42:59.601Z,-5.45
2023-02-11T03:43:59.617Z,-5.45
2023-02-11T03:44:59.667Z,-5.45
2023-02-11T03:45:59.733Z,-5.47
2023-02-11T03:46:59.658Z,-5.47
2023-02-11T03:47:59.665Z,-5.40
2023-02-11T03:48:59.685Z,-5.28
2023-02-11T03:49:59.744Z,-5.18
2023-02-11T03:50:59.722Z,-5.09
2023-02-11T03:51:59.730Z,-5.00
2023-02-11T03:52:59.755Z,-4.95
2023-02-11T03:53:59.760Z,-4.89
2023-02-11T03:54:59.816Z,-4.82
2023-02-11T03:55:59.800Z,-4.77
2023-02-11T03:56:59.825Z,-4.79
2023-02-11T03:57:59.821Z,-4.84
2023-02-11T03:58:59.843Z,-4.91
2023-02-11T03:59:59.879Z,-4.95
2023-02-11T04:00:59.885Z,-4.98
2023-02-11T04:01:59.885Z,-4.99
2023-02-11T04:02:59.956Z,-5.02
2023-02-11T04:03:59.917Z,-5.03
2023-02-11T04:04:59.980Z,-5.05
2023-02-11T04:05:59.963Z,-5.03
2023-02-11T04:06:59.963Z,-5.02
2023-02-11T04:07:59.981Z,-5.02
2023-02-11T04:08:59.996Z,-5.03
2023-02-11T04:10:00.045Z,-5.03
2023-02-11T04:11:00.032Z,-5.03
2023-02-11T04:12:00.056Z,-5.02
2023-02-11T04:13:00.059Z,-5.00
2023-02-11T04:14:00.128Z,-4.96
2023-02-11T04:15:00.161Z,-4.89
2023-02-11T04:16:00.228Z,-4.87
2023-02-11T04:17:00.142Z,-4.85
2023-02-11T04:18:00.157Z,-4.79
2023-02-11T04:19:00.160Z,-4.78
2023-02-11T04:20:00.205Z,-4.79
2023-02-11T04:21:00.198Z,-4.78
2023-02-11T04:22:00.220Z,-4.78
2023-02-11T04:23:00.226Z,-4.73
2023-02-11T04:24:00.276Z,-4.70
2023-02-11T04:25:00.291Z,-4.71
2023-02-11T04:26:00.280Z,-4.70
2023-02-11T04:27:00.295Z,-4.70
2023-02-11T04:28:00.375Z,-4.69
2023-02-11T04:29:00.336Z,-4.61
2023-02-11T04:30:00.384Z,-4.55
2023-02-11T04:31:00.470Z,-4.49
2023-02-11T04:32:00.444Z,-4.41
2023-02-11T04:33:00.389Z,-4.34
2023-02-11T04:34:00.403Z,-4.32
2023-02-11T04:35:00.445Z,-4.31
2023-02-11T04:36:00.431Z,-4.34
2023-02-11T04:37:00.452Z,-4.35
2023-02-11T04:38:00.486Z,-4.38
2023-02-11T04:39:00.486Z,-4.39
2023-02-11T04:40:00.550Z,-4.38
2023-02-11T04:41:00.541Z,-4.39
2023-02-11T04:42:00.536Z,-4.38
2023-02-11T04:43:00.542Z,-4.41
2023-02-11T04:44:00.558Z,-4.42
2023-02-11T04:45:00.602Z,-4.39
2023-02-11T04:46:00.614Z,-4.34
2023-02-11T04:47:00.606Z,-4.32
2023-02-11T04:48:00.617Z,-4.31
2023-02-11T04:49:00.645Z,-4.30
2023-02-11T04:50:00.672Z,-4.31
2023-02-11T04:51:00.667Z,-4.30
2023-02-11T04:52:00.682Z,-4.28
2023-02-11T04:53:00.710Z,-4.30
2023-02-11T04:54:00.721Z,-4.28
2023-02-11T04:55:00.770Z,-4.28
2023-02-11T04:56:00.737Z,-4.27
2023-02-11T04:57:00.759Z,-4.27
2023-02-11T04:58:00.782Z,-4.22
2023-02-11T04:59:00.789Z,-4.17
2023-02-11T05:00:00.828Z,-4.16
2023-02-11T05:01:00.875Z,-4.09
2023-02-11T05:02:00.843Z,-4.03
2023-02-11T05:03:00.862Z,-4.02
2023-02-11T05:04:00.907Z,-3.99
2023-02-11T05:05:00.927Z,-3.99
2023-02-11T05:06:00.904Z,-3.98
2023-02-11T05:07:00.937Z,-3.93
2023-02-11T05:08:00.938Z,-3.93
2023-02-11T05:09:00.960Z,-3.91
2023-02-11T05:10:00.990Z,-3.85
2023-02-11T05:11:00.990Z,-3.78
2023-02-11T05:12:01.019Z,-3.75
2023-02-11T05:13:01.027Z,-3.69
2023-02-11T05:14:01.033Z,-3.64
2023-02-11T05:15:01.077Z,-3.58
2023-02-11T05:16:01.060Z,-3.55
2023-02-11T05:17:01.131Z,-3.55
2023-02-11T05:18:01.090Z,-3.56
2023-02-11T05:19:01.135Z,-3.56
2023-02-11T05:20:01.137Z,-3.55
2023-02-11T05:21:01.142Z,-3.51
2023-02-11T05:22:03.426Z,-3.49
2023-02-11T05:23:01.178Z,-3.46
2023-02-11T05:24:01.195Z,-3.45
2023-02-11T05:25:01.225Z,-3.40
2023-02-11T05:26:01.216Z,-3.38
2023-02-11T05:27:01.236Z,-3.34
2023-02-11T05:28:01.280Z,-3.33
2023-02-11T05:29:01.269Z,-3.30
2023-02-11T05:30:01.308Z,-3.30
2023-02-11T05:31:01.361Z,-3.27
2023-02-11T05:32:01.318Z,-3.27
2023-02-11T05:33:01.323Z,-3.27
2023-02-11T05:34:01.341Z,-3.25
2023-02-11T05:35:01.397Z,-3.25
2023-02-11T05:36:01.377Z,-3.23
2023-02-11T05:37:01.434Z,-3.23
2023-02-11T05:38:01.405Z,-3.23
2023-02-11T05:39:01.419Z,-3.20
2023-02-11T05:40:01.529Z,-3.17
2023-02-11T05:41:01.448Z,-3.10
2023-02-11T05:42:01.475Z,-3.09
2023-02-11T05:43:01.488Z,-3.06
2023-02-11T05:44:01.500Z,-2.99
2023-02-11T05:45:01.548Z,-2.95
2023-02-11T05:46:01.637Z,-2.84
2023-02-11T05:47:01.561Z,-2.81
2023-02-11T05:48:01.555Z,-2.78
2023-02-11T05:49:01.568Z,-2.77
2023-02-11T05:50:01.676Z,-2.76
2023-02-11T05:51:01.597Z,-2.71
2023-02-11T05:52:01.621Z,-2.71
2023-02-11T05:53:01.643Z,-2.69
2023-02-11T05:54:01.663Z,-2.69
2023-02-11T05:55:01.701Z,-2.65
2023-02-11T05:56:01.683Z,-2.63
2023-02-11T05:57:01.695Z,-2.62
2023-02-11T05:58:01.717Z,-2.62
2023-02-11T05:59:01.729Z,-2.56
2023-02-11T06:00:01.772Z,-2.56
2023-02-11T06:01:01.761Z,-2.56
2023-02-11T06:02:01.774Z,-2.55
2023-02-11T06:03:01.786Z,-2.53
2023-02-11T06:04:01.846Z,-2.52
2023-02-11T06:05:01.843Z,-2.52
2023-02-11T06:06:01.838Z,-2.53
2023-02-11T06:07:01.850Z,-2.48
2023-02-11T06:08:01.874Z,-2.47
2023-02-11T06:09:01.902Z,-2.44
2023-02-11T06:10:01.923Z,-2.42
2023-02-11T06:11:01.910Z,-2.40
2023-02-11T06:12:01.931Z,-2.40
2023-02-11T06:13:01.945Z,-2.40
2023-02-11T06:14:01.969Z,-2.38
2023-02-11T06:15:02.014Z,-2.38
2023-02-11T06:16:02.122Z,-2.35
2023-02-11T06:17:02.008Z,-2.35
2023-02-11T06:18:02.032Z,-2.34
2023-02-11T06:19:02.047Z,-2.35
2023-02-11T06:20:02.096Z,-2.30
2023-02-11T06:21:02.068Z,-2.28
2023-02-11T06:22:02.087Z,-2.30
2023-02-11T06:23:02.099Z,-2.32
2023-02-11T06:24:02.115Z,-2.32
2023-02-11T06:25:02.456Z,-2.34
2023-02-11T06:26:02.153Z,-2.32
2023-02-11T06:27:02.155Z,-2.30
2023-02-11T06:28:02.251Z,-2.28
2023-02-11T06:29:02.198Z,-2.28
2023-02-11T06:30:02.251Z,-2.25
2023-02-11T06:31:02.344Z,-2.23
2023-02-11T06:32:02.378Z,-2.22
2023-02-11T06:33:02.263Z,-2.18
2023-02-11T06:34:02.309Z,-2.18
2023-02-11T06:35:02.321Z,-2.16
2023-02-11T06:36:02.321Z,-2.13
2023-02-11T06:37:02.320Z,-2.12
2023-02-11T06:38:02.343Z,-2.12
2023-02-11T06:39:02.362Z,-2.08
2023-02-11T06:40:02.435Z,-2.01
2023-02-11T06:41:02.391Z,-2.01
2023-02-11T06:42:02.530Z,-1.98
2023-02-11T06:43:02.421Z,-1.95
2023-02-11T06:44:02.443Z,-1.97
2023-02-11T06:45:02.484Z,-1.97
2023-02-11T06:46:02.477Z,-1.94
2023-02-11T06:47:02.489Z,-1.94
2023-02-11T06:48:02.509Z,-1.90
2023-02-11T06:49:02.518Z,-1.89
2023-02-11T06:50:02.556Z,-1.84
2023-02-11T06:51:02.545Z,-1.83
2023-02-11T06:52:02.561Z,-1.82
2023-02-11T06:53:02.577Z,-1.80
2023-02-11T06:54:02.597Z,-1.80
2023-02-11T06:55:02.636Z,-1.77
2023-02-11T06:56:02.635Z,-1.80
2023-02-11T06:57:02.640Z,-1.79
2023-02-11T06:58:02.659Z,-1.80
2023-02-11T06:59:02.673Z,-1.80
2023-02-11T07:00:02.819Z,-1.80
2023-02-11T07:01:02.698Z,-1.80
2023-02-11T07:02:02.803Z,-1.77
2023-02-11T07:03:02.906Z,-1.74
2023-02-11T07:04:02.751Z,-1.71
2023-02-11T07:05:02.808Z,-1.71
2023-02-11T07:06:02.794Z,-1.66
2023-02-11T07:07:02.802Z,-1.62
2023-02-11T07:08:02.826Z,-1.59
2023-02-11T07:09:02.836Z,-1.56
2023-02-11T07:10:02.883Z,-1.54
2023-02-11T07:11:02.873Z,-1.53
2023-02-11T07:12:02.889Z,-1.51
2023-02-11T07:13:02.900Z,-1.50
2023-02-11T07:14:02.918Z,-1.50
2023-02-11T07:15:02.959Z,-1.47
2023-02-11T07:16:02.983Z,-1.47
2023-02-11T07:17:02.973Z,-1.47
2023-02-11T07:18:02.983Z,-1.46
2023-02-11T07:19:03.006Z,-1.43
2023-02-11T07:20:03.074Z,-1.40
2023-02-11T07:21:03.032Z,-1.38
2023-02-11T07:22:03.047Z,-1.33
2023-02-11T07:23:03.065Z,-1.27
2023-02-11T07:24:03.084Z,-1.25
2023-02-11T07:25:03.138Z,-1.20
2023-02-11T07:26:03.125Z,-1.17
2023-02-11T07:27:03.134Z,-1.15
2023-02-11T07:28:03.210Z,-1.15
2023-02-11T07:29:03.163Z,-1.14
2023-02-11T07:30:04.931Z,-1.12
2023-02-11T07:31:03.309Z,-1.09
2023-02-11T07:32:03.367Z,-1.07
2023-02-11T07:33:03.222Z,-1.01
2023-02-11T07:34:03.255Z,-0.94
2023-02-11T07:35:03.323Z,-0.90
2023-02-11T07:36:03.271Z,-0.85
2023-02-11T07:37:03.281Z,-0.78
2023-02-11T07:38:03.309Z,-0.77
2023-02-11T07:39:03.310Z,-0.70
2023-02-11T07:40:03.353Z,-0.65
2023-02-11T07:41:03.341Z,-0.59
2023-02-11T07:42:03.364Z,-0.53
2023-02-11T07:43:03.366Z,-0.49
2023-02-11T07:44:03.387Z,-0.46
2023-02-11T07:45:03.433Z,-0.43
2023-02-11T07:46:03.410Z,-0.41
2023-02-11T07:47:03.456Z,-0.41
2023-02-11T07:48:03.445Z,-0.39
2023-02-11T07:49:03.450Z,-0.36
2023-02-11T07:50:03.495Z,-0.35
2023-02-11T07:51:03.479Z,-0.34
2023-02-11T07:52:03.505Z,-0.32
2023-02-11T07:53:03.518Z,-0.32
2023-02-11T07:54:03.536Z,-0.34
2023-02-11T07:55:04.951Z,-0.32
2023-02-11T07:56:03.562Z,-0.34
2023-02-11T07:57:03.574Z,-0.34
2023-02-11T07:58:03.592Z,-0.32
2023-02-11T07:59:03.609Z,-0.32
2023-02-11T08:00:03.649Z,-0.29
2023-02-11T08:01:03.711Z,-0.26
2023-02-11T08:02:03.716Z,-0.23
2023-02-11T08:03:03.662Z,-0.18
2023-02-11T08:04:03.695Z,-0.14
2023-02-11T08:05:03.722Z,-0.10
2023-02-11T08:06:03.708Z,-0.07
2023-02-11T08:07:03.716Z,-0.03
2023-02-11T08:08:03.744Z,-0.02
2023-02-11T08:09:03.766Z,0.01
2023-02-11T08:10:03.808Z,0.01
2023-02-11T08:11:03.793Z,0.04
2023-02-11T08:12:03.815Z,0.07
2023-02-11T08:13:03.836Z,0.08
2023-02-11T08:14:03.877Z,0.12
2023-02-11T08:15:03.915Z,0.16
2023-02-11T08:16:03.941Z,0.19
2023-02-11T08:17:03.903Z,0.22
2023-02-11T08:18:03.928Z,0.23
2023-02-11T08:19:03.942Z,0.25
2023-02-11T08:20:03.992Z,0.26
2023-02-11T08:21:03.972Z,0.29
2023-02-11T08:22:03.995Z,0.32
2023-02-11T08:23:04.012Z,0.37
2023-02-11T08:24:04.048Z,0.43
2023-02-11T08:25:04.072Z,0.46
2023-02-11T08:26:04.075Z,0.50
2023-02-11T08:27:04.096Z,0.56
2023-02-11T08:28:04.159Z,0.62
2023-02-11T08:29:04.126Z,0.68
2023-02-11T08:30:04.182Z,0.77
2023-02-11T08:31:04.184Z,0.86
2023-02-11T08:32:04.235Z,0.91
2023-02-11T08:33:04.194Z,0.94
2023-02-11T08:34:04.217Z,0.95
2023-02-11T08:35:04.266Z,0.94
2023-02-11T08:36:04.247Z,0.96
2023-02-11T08:37:04.258Z,0.96
2023-02-11T08:38:04.281Z,0.99
2023-02-11T08:39:20.611Z,1.05
2023-02-11T08:40:04.354Z,1.08
2023-02-11T08:41:04.327Z,1.10
2023-02-11T08:42:04.354Z,1.12
2023-02-11T08:43:06.960Z,1.14
2023-02-11T08:44:04.386Z,1.12
2023-02-11T08:45:04.425Z,1.13
2023-02-11T08:46:04.463Z,1.14
2023-02-11T08:47:04.439Z,1.17
2023-02-11T08:48:04.463Z,1.14
2023-02-11T08:49:04.477Z,1.14
2023-02-11T08:50:04.515Z,1.12
2023-02-11T08:51:04.508Z,1.12
2023-02-11T08:52:04.535Z,1.16
2023-02-11T08:53:04.535Z,1.14
2023-02-11T08:54:04.570Z,1.14
2023-02-11T08:55:04.632Z,1.12
2023-02-11T08:56:04.593Z,1.13
2023-02-11T08:57:04.600Z,1.12
2023-02-11T08:58:04.622Z,1.10
2023-02-11T08:59:04.644Z,1.10
2023-02-11T09:00:04.741Z,1.12
2023-02-11T09:01:04.722Z,1.12
2023-02-11T09:02:04.768Z,1.14
2023-02-11T09:03:04.719Z,1.13
2023-02-11T09:04:04.738Z,1.12
2023-02-11T09:05:04.764Z,1.12
2023-02-11T09:06:04.774Z,1.14
2023-02-11T09:07:04.788Z,1.16
2023-02-11T09:08:04.795Z,1.16
2023-02-11T09:09:04.804Z,1.17
2023-02-11T09:10:04.846Z,1.20
2023-02-11T09:11:04.828Z,1.23
2023-02-11T09:12:04.849Z,1.28
2023-02-11T09:13:04.871Z,1.34
2023-02-11T09:14:04.896Z,1.37
2023-02-11T09:15:04.947Z,1.42
2023-02-11T09:16:04.934Z,1.48
2023-02-11T09:17:04.995Z,1.48
2023-02-11T09:18:04.969Z,1.49
2023-02-11T09:19:05.045Z,1.50
2023-02-11T09:20:05.035Z,1.50
2023-02-11T09:21:05.035Z,1.55
2023-02-11T09:22:05.060Z,1.59
2023-02-11T09:23:05.066Z,1.59
2023-02-11T09:24:05.089Z,1.62
2023-02-11T09:25:05.127Z,1.67
2023-02-11T09:26:07.490Z,1.71
2023-02-11T09:27:05.141Z,1.73
2023-02-11T09:28:05.195Z,1.78
2023-02-11T09:29:05.188Z,1.81
2023-02-11T09:30:05.226Z,1.84
2023-02-11T09:31:05.327Z,1.87
2023-02-11T09:32:07.878Z,1.84
2023-02-11T09:33:05.230Z,1.84
2023-02-11T09:34:05.253Z,1.87
2023-02-11T09:35:05.281Z,1.92
2023-02-11T09:36:05.277Z,1.89
2023-02-11T09:37:05.282Z,1.92
2023-02-11T09:38:05.302Z,1.92
2023-02-11T09:39:05.320Z,1.99
2023-02-11T09:40:05.363Z,2.02
2023-02-11T09:41:05.361Z,2.04
2023-02-11T09:42:05.378Z,2.02
2023-02-11T09:43:05.390Z,2.06
2023-02-11T09:44:05.398Z,2.08
2023-02-11T09:45:05.441Z,2.14
2023-02-11T09:46:05.485Z,2.14
2023-02-11T09:47:05.452Z,2.17
2023-02-11T09:48:06.456Z,2.18
2023-02-11T09:49:05.494Z,2.24
2023-02-11T09:50:05.545Z,2.35
2023-02-11T09:51:05.536Z,2.39
2023-02-11T09:52:05.541Z,2.44
2023-02-11T09:53:05.575Z,2.54
2023-02-11T09:54:05.753Z,2.61
2023-02-11T09:55:05.648Z,2.68
2023-02-11T09:56:05.630Z,2.75
2023-02-11T09:57:06.109Z,2.79
2023-02-11T09:58:05.659Z,2.85
2023-02-11T09:59:05.720Z,2.86
2023-02-11T10:00:05.720Z,2.87
2023-02-11T10:01:05.776Z,2.89
2023-02-11T10:02:05.734Z,2.89
2023-02-11T10:03:05.755Z,2.87
2023-02-11T10:04:05.889Z,2.86
2023-02-11T10:05:05.814Z,2.89
2023-02-11T10:06:05.806Z,2.83
2023-02-11T10:07:05.824Z,2.82
2023-02-11T10:08:05.843Z,2.82
2023-02-11T10:09:05.864Z,2.85
2023-02-11T10:10:05.910Z,2.89
2023-02-11T10:11:05.902Z,2.90
2023-02-11T10:12:05.917Z,2.87
2023-02-11T10:13:05.938Z,2.89
2023-02-11T10:14:05.952Z,2.89
2023-02-11T10:15:05.994Z,2.90
2023-02-11T10:16:06.069Z,2.93
2023-02-11T10:17:06.009Z,2.92
2023-02-11T10:18:06.018Z,2.90
2023-02-11T10:19:06.037Z,2.89
2023-02-11T10:20:06.084Z,2.90
2023-02-11T10:21:06.096Z,2.89
2023-02-11T10:22:06.104Z,2.90
2023-02-11T10:23:06.119Z,2.95
2023-02-11T10:24:06.128Z,3.03
2023-02-11T10:25:06.168Z,3.04
2023-02-11T10:26:06.167Z,3.08
2023-02-11T10:27:06.182Z,3.16
2023-02-11T10:28:06.232Z,3.21
2023-02-11T10:29:06.214Z,3.23
2023-02-11T10:30:06.503Z,3.26
2023-02-11T10:31:06.436Z,3.32
2023-02-11T10:32:06.303Z,3.41
2023-02-11T10:33:06.284Z,3.42
2023-02-11T10:34:06.304Z,3.44
2023-02-11T10:35:06.323Z,3.47
2023-02-11T10:36:06.358Z,3.50
2023-02-11T10:37:06.353Z,3.51
2023-02-11T10:38:06.372Z,3.45
2023-02-11T10:39:06.397Z,3.45
2023-02-11T10:40:06.451Z,3.40
2023-02-11T10:41:06.438Z,3.36
2023-02-11T10:42:06.452Z,3.31
2023-02-11T10:43:06.473Z,3.28
2023-02-11T10:44:06.493Z,3.26
2023-02-11T10:45:06.534Z,3.25
2023-02-11T10:46:06.627Z,3.19
2023-02-11T10:47:06.559Z,3.18
2023-02-11T10:48:06.567Z,3.19
2023-02-11T10:49:06.593Z,3.22
2023-02-11T10:50:06.625Z,3.23
2023-02-11T10:51:06.620Z,3.31
2023-02-11T10:52:06.631Z,3.41
2023-02-11T10:53:06.652Z,3.51
2023-02-11T10:54:06.674Z,3.56
2023-02-11T10:55:06.717Z,3.62
2023-02-11T10:56:06.704Z,3.66
2023-02-11T10:57:06.726Z,3.74
2023-02-11T10:58:06.758Z,3.77
2023-02-11T10:59:06.772Z,3.80
2023-02-11T11:00:06.814Z,3.81
2023-02-11T11:01:23.224Z,3.86
2023-02-11T11:02:06.926Z,3.92
2023-02-11T11:03:06.848Z,4.01
2023-02-11T11:04:06.853Z,4.08
2023-02-11T11:05:06.979Z,4.14
2023-02-11T11:06:06.897Z,4.17
2023-02-11T11:07:06.918Z,4.17
2023-02-11T11:08:06.939Z,4.17
2023-02-11T11:09:06.954Z,4.17
2023-02-11T11:10:07.022Z,4.19
2023-02-11T11:11:06.989Z,4.17
2023-02-11T11:12:07.003Z,4.17
2023-02-11T11:13:07.031Z,4.28
2023-02-11T11:14:07.053Z,4.38
2023-02-11T11:15:07.097Z,4.50
2023-02-11T11:16:07.105Z,4.59
2023-02-11T11:17:07.096Z,4.60
2023-02-11T11:18:20.605Z,4.62
2023-02-11T11:19:07.161Z,4.59
2023-02-11T11:20:07.202Z,4.55
2023-02-11T11:21:07.159Z,4.50
2023-02-11T11:22:07.176Z,4.48
2023-02-11T11:23:07.200Z,4.44
2023-02-11T11:24:07.210Z,4.38
2023-02-11T11:25:07.261Z,4.35
2023-02-11T11:26:07.256Z,4.28
2023-02-11T11:27:07.275Z,4.23
2023-02-11T11:28:07.311Z,4.17
2023-02-11T11:29:07.307Z,4.14
2023-02-11T11:30:07.345Z,4.14
2023-02-11T11:31:07.509Z,4.13
2023-02-11T11:32:07.420Z,4.16
2023-02-11T11:33:07.369Z,4.24
2023-02-11T11:34:07.385Z,4.38
2023-02-11T11:35:07.438Z,4.50
2023-02-11T11:36:07.421Z,4.58
2023-02-11T11:37:07.438Z,4.68
2023-02-11T11:38:07.443Z,4.78
2023-02-11T11:39:07.467Z,4.87
2023-02-11T11:40:07.500Z,4.96
2023-02-11T11:41:07.490Z,5.04
2023-02-11T11:42:07.518Z,5.08
2023-02-11T11:43:07.549Z,5.12
2023-02-11T11:44:07.566Z,5.20
2023-02-11T11:45:07.586Z,5.29
2023-02-11T11:46:07.573Z,5.28
2023-02-11T11:47:07.599Z,5.21
2023-02-11T11:48:07.617Z,5.15
2023-02-11T11:49:07.636Z,5.14
2023-02-11T11:50:07.670Z,5.10
2023-02-11T11:51:07.671Z,5.07
2023-02-11T11:52:07.675Z,5.00
2023-02-11T11:53:07.701Z,4.99
2023-02-11T11:54:07.716Z,4.96
2023-02-11T11:55:07.764Z,4.93
2023-02-11T11:56:07.758Z,4.92
2023-02-11T11:57:07.775Z,4.86
2023-02-11T11:58:07.810Z,4.84
2023-02-11T11:59:07.816Z,4.84
2023-02-11T12:00:07.882Z,4.84
2023-02-11T12:01:07.870Z,4.87
2023-02-11T12:02:08.673Z,4.93
2023-02-11T12:03:08.014Z,5.04
2023-02-11T12:04:07.930Z,5.12
2023-02-11T12:05:07.977Z,5.23
2023-02-11T12:06:07.934Z,5.28
2023-02-11T12:07:07.963Z,5.26
2023-02-11T12:08:07.971Z,5.26
2023-02-11T12:09:07.998Z,5.25
2023-02-11T12:10:08.042Z,5.28
2023-02-11T12:11:08.026Z,5.32
2023-02-11T12:12:08.049Z,5.32
2023-02-11T12:13:08.063Z,5.33
2023-02-11T12:14:08.071Z,5.38
2023-02-11T12:15:08.128Z,5.43
2023-02-11T12:16:08.165Z,5.47
2023-02-11T12:17:08.156Z,5.56
2023-02-11T12:18:08.165Z,5.64
2023-02-11T12:19:08.163Z,5.68
2023-02-11T12:20:08.202Z,5.75
2023-02-11T12:21:08.203Z,5.83
2023-02-11T12:22:08.223Z,5.87
2023-02-11T12:23:08.237Z,5.94
2023-02-11T12:24:08.254Z,6.01
2023-02-11T12:25:08.319Z,6.07
2023-02-11T12:26:08.296Z,6.09
2023-02-11T12:27:08.337Z,6.17
2023-02-11T12:28:08.416Z,6.14
2023-02-11T12:29:08.355Z,6.17
2023-02-11T12:30:08.402Z,6.20
2023-02-11T12:31:08.457Z,6.19
2023-02-11T12:32:08.494Z,6.26
2023-02-11T12:33:08.458Z,6.26
2023-02-11T12:34:08.445Z,6.24
2023-02-11T12:35:08.488Z,6.26
2023-02-11T12:36:08.509Z,6.30
2023-02-11T12:37:08.497Z,6.33
2023-02-11T12:38:08.532Z,6.35
2023-02-11T12:39:08.531Z,6.42
2023-02-11T12:40:08.564Z,6.49
2023-02-11T12:41:08.559Z,6.59
2023-02-11T12:42:08.613Z,6.66
2023-02-11T12:43:08.606Z,6.74
2023-02-11T12:44:08.607Z,6.75
2023-02-11T12:45:08.657Z,6.77
2023-02-11T12:46:08.748Z,6.77
2023-02-11T12:47:08.664Z,6.74
2023-02-11T12:48:08.696Z,6.69
2023-02-11T12:49:08.705Z,6.69
2023-02-11T12:50:08.748Z,6.69
2023-02-11T12:51:08.751Z,6.70
2023-02-11T12:52:08.755Z,6.70
2023-02-11T12:53:08.784Z,6.74
2023-02-11T12:54:08.790Z,6.77
2023-02-11T12:55:08.842Z,6.82
2023-02-11T12:56:08.828Z,6.88
2023-02-11T12:57:08.853Z,6.95
2023-02-11T12:58:08.864Z,7.03
2023-02-11T12:59:08.888Z,7.07
2023-02-11T13:00:08.922Z,7.14
2023-02-11T13:01:09.012Z,7.18
2023-02-11T13:02:08.962Z,7.28
2023-02-11T13:03:08.948Z,7.32